Time;durP1;ratioP1;P1;durP2;ratioP2;P2;SDS_P1;SDS_P2;PMS_P1;PMS_P2;Temp;Humidity;BMP_temperature;BMP_pressure;BME280_temperature;BME280_humidity;BME280_pressure;Samples;Min_cycle;Max_cycle;Signal;HPM_P1;HPM_P2
2022/06/25 00:00:00;;;;;;;2.78;1.67;;;20.30;99.90;;;;;;2075726;28;20116;-70
2022/06/25 00:01:00;;;;;;;2.30;1.92;;;20.30;99.90;;;;;;2072400;28;20437;-70
2022/06/25 00:02:01;;;;;;;3.75;2.40;;;20.30;99.90;;;;;;2072746;28;20025;-70
2022/06/25 00:03:02;;;;;;;4.82;1.70;;;20.30;99.90;;;;;;2077004;28;20030;-70
2022/06/25 00:04:03;;;;;;;5.63;1.90;;;20.30;99.90;;;;;;2075999;28;20033;-70
2022/06/25 00:06:23;;;;;;;4.20;1.53;;;20.20;99.90;;;;;;2076563;28;20477;-70
2022/06/25 00:07:23;;;;;;;4.22;1.75;;;20.20;99.90;;;;;;2074767;28;20464;-70
2022/06/25 00:08:24;;;;;;;4.75;1.90;;;20.20;99.90;;;;;;2073064;28;20370;-70
2022/06/25 00:09:25;;;;;;;3.53;1.83;;;20.20;99.90;;;;;;2078442;28;20028;-70
2022/06/25 00:10:25;;;;;;;2.92;1.98;;;20.20;99.90;;;;;;2077800;28;20097;-70
2022/06/25 00:12:45;;;;;;;4.18;2.05;;;20.20;99.90;;;;;;2076442;28;20109;-70
2022/06/25 00:13:46;;;;;;;2.20;1.50;;;20.20;99.90;;;;;;2076656;28;20022;-70
2022/06/25 00:14:46;;;;;;;2.35;1.55;;;20.20;99.90;;;;;;2074084;28;20030;-70
2022/06/25 00:15:47;;;;;;;6.15;2.47;;;20.20;99.90;;;;;;2075916;28;20014;-69
2022/06/25 00:16:48;;;;;;;2.20;1.58;;;20.20;99.90;;;;;;2078864;28;20021;-70
2022/06/25 00:17:49;;;;;;;1.90;1.80;;;20.20;99.90;;;;;;2077103;28;20107;-70
2022/06/25 00:18:50;;;;;;;3.03;1.98;;;20.20;99.90;;;;;;2080189;28;20017;-70
2022/06/25 00:19:50;;;;;;;4.10;1.88;;;20.20;99.90;;;;;;2076937;28;20022;-70
2022/06/25 00:20:51;;;;;;;2.88;1.85;;;20.20;99.90;;;;;;2079145;28;20034;-70
2022/06/25 00:21:52;;;;;;;7.50;1.85;;;20.20;99.90;;;;;;2075989;28;20033;-70
2022/06/25 00:22:53;;;;;;;5.28;1.67;;;20.10;99.90;;;;;;2077339;28;20045;-70
2022/06/25 00:23:53;;;;;;;4.72;1.90;;;20.20;99.90;;;;;;2078831;28;20018;-70
2022/06/25 00:24:54;;;;;;;2.33;1.73;;;20.20;99.90;;;;;;2079635;28;20053;-70
2022/06/25 00:25:55;;;;;;;3.83;1.83;;;20.10;99.90;;;;;;2078919;28;20045;-70
2022/06/25 00:26:55;;;;;;;2.35;1.80;;;20.10;99.90;;;;;;2079442;28;20494;-70
2022/06/25 00:27:56;;;;;;;3.90;2.00;;;20.20;99.90;;;;;;2078250;28;20045;-70
2022/06/25 00:28:57;;;;;;;3.35;1.77;;;20.10;99.90;;;;;;2078167;28;20022;-70
2022/06/25 00:29:57;;;;;;;3.22;1.85;;;20.10;99.90;;;;;;2077522;28;20105;-70
2022/06/25 00:30:58;;;;;;;3.00;1.50;;;20.10;99.90;;;;;;2076494;28;20059;-70
2022/06/25 00:31:58;;;;;;;4.20;1.50;;;20.10;99.90;;;;;;2077166;28;20020;-70
2022/06/25 00:32:59;;;;;;;3.42;1.77;;;20.10;99.90;;;;;;2078083;28;20464;-70
2022/06/25 00:34:00;;;;;;;3.05;1.60;;;20.10;99.90;;;;;;2078683;28;20097;-70
2022/06/25 00:35:01;;;;;;;2.72;1.60;;;20.10;99.90;;;;;;2079251;28;20021;-70
2022/06/25 00:36:02;;;;;;;3.72;1.63;;;20.10;99.90;;;;;;2077929;28;20408;-70
2022/06/25 00:37:02;;;;;;;5.88;1.50;;;20.00;99.90;;;;;;2079225;28;20053;-70
2022/06/25 00:38:03;;;;;;;3.22;1.75;;;20.00;99.90;;;;;;2078276;28;21233;-70
2022/06/25 00:39:04;;;;;;;2.97;1.48;;;20.00;99.90;;;;;;2077739;28;20022;-70
2022/06/25 00:40:05;;;;;;;3.22;2.00;;;20.10;99.90;;;;;;2079396;28;20029;-70
2022/06/25 00:41:06;;;;;;;2.20;1.55;;;20.00;99.90;;;;;;2077702;28;20021;-70
2022/06/25 00:42:13;;;;;;;2.50;1.55;;;20.00;99.90;;;;;;2077736;28;20014;-70
2022/06/25 00:43:14;;;;;;;3.22;1.75;;;20.00;99.90;;;;;;2079588;28;20025;-70
2022/06/25 00:44:16;;;;;;;2.20;1.60;;;20.00;99.90;;;;;;2077871;28;20045;-70
2022/06/25 00:45:17;;;;;;;3.05;1.60;;;20.00;99.90;;;;;;2077821;28;20428;-70
2022/06/25 00:46:17;;;;;;;2.88;1.60;;;20.00;99.90;;;;;;2077362;28;20022;-70
2022/06/25 00:47:18;;;;;;;1.98;1.58;;;20.00;99.90;;;;;;2077394;28;20469;-70
2022/06/25 00:48:18;;;;;;;2.88;1.70;;;20.00;99.90;;;;;;2078270;28;20024;-70
2022/06/25 00:49:19;;;;;;;3.17;1.38;;;20.00;99.90;;;;;;2078928;28;20029;-70
2022/06/25 00:50:20;;;;;;;4.22;1.65;;;20.00;99.90;;;;;;2076121;28;20036;-70
2022/06/25 00:51:22;;;;;;;2.30;1.50;;;20.00;99.90;;;;;;2075288;28;20026;-70
2022/06/25 00:52:25;;;;;;;3.70;1.70;;;20.00;99.90;;;;;;2078312;28;20389;-70
2022/06/25 00:53:32;;;;;;;2.78;1.38;;;20.00;99.90;;;;;;2076751;28;20044;-70
2022/06/25 00:54:36;;;;;;;3.22;1.75;;;20.00;99.90;;;;;;2076667;28;20470;-70
2022/06/25 00:55:38;;;;;;;2.92;1.55;;;20.00;99.90;;;;;;2079059;28;20033;-70
2022/06/25 00:56:43;;;;;;;3.53;1.20;;;20.00;99.90;;;;;;2075503;28;20068;-70
2022/06/25 00:57:44;;;;;;;2.95;1.63;;;20.00;99.90;;;;;;2077071;28;20745;-70
2022/06/25 00:58:45;;;;;;;4.65;1.75;;;20.00;99.90;;;;;;2077113;28;20378;-70
2022/06/25 00:59:50;;;;;;;4.43;1.85;;;20.00;99.90;;;;;;2076094;28;20024;-70
2022/06/25 01:00:51;;;;;;;5.25;1.75;;;19.90;99.90;;;;;;2076826;28;20550;-70
2022/06/25 01:01:52;;;;;;;1.58;1.35;;;19.90;99.90;;;;;;2077039;28;20038;-70
2022/06/25 01:02:53;;;;;;;2.70;1.48;;;19.90;99.90;;;;;;2079468;28;20029;-70
2022/06/25 01:03:53;;;;;;;2.92;1.52;;;19.90;99.90;;;;;;2077736;28;20040;-70
2022/06/25 01:04:54;;;;;;;3.80;1.60;;;19.90;99.90;;;;;;2078817;28;20033;-70
2022/06/25 01:05:55;;;;;;;3.00;1.40;;;19.90;99.90;;;;;;2078124;28;20014;-70
2022/06/25 01:06:55;;;;;;;2.83;1.40;;;19.90;99.90;;;;;;2076345;28;20026;-70
2022/06/25 01:07:56;;;;;;;2.25;1.58;;;19.90;99.90;;;;;;2076574;28;20049;-70
2022/06/25 01:08:57;;;;;;;2.72;1.52;;;19.90;99.90;;;;;;2078609;28;20614;-70
2022/06/25 01:09:58;;;;;;;2.28;1.55;;;19.90;99.90;;;;;;2075815;28;20021;-70
2022/06/25 01:10:59;;;;;;;3.03;1.60;;;19.90;99.90;;;;;;2079412;28;20125;-70
2022/06/25 01:12:00;;;;;;;2.55;1.40;;;19.90;99.90;;;;;;2077255;28;20022;-70
2022/06/25 01:13:00;;;;;;;5.13;1.67;;;19.90;99.90;;;;;;2077743;28;20061;-70
2022/06/25 01:14:09;;;;;;;1.60;1.35;;;19.80;99.90;;;;;;2077321;28;20500;-70
2022/06/25 01:15:17;;;;;;;2.25;1.40;;;19.80;99.90;;;;;;2078326;28;20029;-70
2022/06/25 01:16:21;;;;;;;3.40;1.50;;;19.80;99.90;;;;;;2076484;28;20036;-70
2022/06/25 01:17:22;;;;;;;3.10;1.60;;;19.80;99.90;;;;;;2077279;28;20093;-70
2022/06/25 01:18:23;;;;;;;2.55;1.50;;;19.80;99.90;;;;;;2077843;28;20029;-70
2022/06/25 01:19:24;;;;;;;4.45;1.60;;;19.80;99.90;;;;;;2075472;28;20022;-70
2022/06/25 01:20:24;;;;;;;4.90;1.95;;;19.70;99.90;;;;;;2078038;28;20017;-70
2022/06/25 01:21:26;;;;;;;2.08;1.52;;;19.70;99.90;;;;;;2077681;28;20033;-70
2022/06/25 01:22:27;;;;;;;2.95;1.58;;;19.70;99.90;;;;;;2077861;28;20033;-70
2022/06/25 01:23:30;;;;;;;2.45;1.60;;;19.70;99.90;;;;;;2080479;28;20029;-70
2022/06/25 01:24:31;;;;;;;2.58;1.70;;;19.70;99.90;;;;;;2076734;28;20040;-70
2022/06/25 01:25:35;;;;;;;2.35;1.60;;;19.70;99.90;;;;;;2076472;28;20503;-70
2022/06/25 01:26:37;;;;;;;4.43;2.08;;;19.70;99.90;;;;;;2076866;28;20083;-70
2022/06/25 01:27:38;;;;;;;3.38;2.00;;;19.60;99.90;;;;;;2078410;28;20366;-70
2022/06/25 01:28:38;;;;;;;3.08;1.90;;;19.70;99.90;;;;;;2076746;28;20151;-70
2022/06/25 01:29:39;;;;;;;3.83;1.75;;;19.60;99.90;;;;;;2075895;28;20535;-70
2022/06/25 01:30:40;;;;;;;2.92;1.67;;;19.60;99.90;;;;;;2078456;28;20056;-70
2022/06/25 01:31:40;;;;;;;3.95;1.52;;;19.70;99.90;;;;;;2080198;28;20025;-70
2022/06/25 01:32:41;;;;;;;2.17;1.63;;;19.70;99.90;;;;;;2077544;28;20029;-70
2022/06/25 01:33:41;;;;;;;2.15;1.77;;;19.60;99.90;;;;;;2076129;28;20026;-70
2022/06/25 01:34:42;;;;;;;5.75;1.40;;;19.60;99.90;;;;;;2076640;28;20064;-70
2022/06/25 01:35:43;;;;;;;4.18;1.45;;;19.60;99.90;;;;;;2073799;28;20093;-70
2022/06/25 01:36:43;;;;;;;3.10;1.67;;;19.60;99.90;;;;;;2077177;28;20091;-70
2022/06/25 01:37:44;;;;;;;2.53;1.55;;;19.70;99.90;;;;;;2073887;28;20030;-70
2022/06/25 01:38:45;;;;;;;3.42;1.83;;;19.70;99.90;;;;;;2078702;28;20389;-70
2022/06/25 01:39:46;;;;;;;5.03;2.03;;;19.70;99.90;;;;;;2079350;28;20041;-70
2022/06/25 01:40:46;;;;;;;1.48;1.35;;;19.70;99.90;;;;;;2077287;28;20076;-70
2022/06/25 01:41:47;;;;;;;2.30;1.90;;;19.60;99.90;;;;;;2078649;28;20725;-70
2022/06/25 01:42:59;;;;;;;2.63;1.55;;;19.60;99.90;;;;;;2077241;28;20029;-70
2022/06/25 01:44:00;;;;;;;1.40;1.30;;;19.60;99.90;;;;;;2076665;28;20025;-70
2022/06/25 01:45:00;;;;;;;3.17;1.75;;;19.60;99.90;;;;;;2077024;28;20031;-70
2022/06/25 01:46:01;;;;;;;1.63;1.33;;;19.60;99.90;;;;;;2074439;28;20494;-70
2022/06/25 01:47:02;;;;;;;2.28;1.45;;;19.60;99.90;;;;;;2075527;28;20061;-70
2022/06/25 01:48:04;;;;;;;2.95;1.75;;;19.60;99.90;;;;;;2077837;28;20037;-70
2022/06/25 01:49:05;;;;;;;2.80;1.88;;;19.60;99.90;;;;;;2070493;28;20013;-70
2022/06/25 01:50:08;;;;;;;3.78;1.80;;;19.60;99.90;;;;;;2077625;28;20071;-70
2022/06/25 01:51:09;;;;;;;3.17;1.85;;;19.60;99.90;;;;;;2076777;28;20427;-70
2022/06/25 01:52:13;;;;;;;3.10;1.77;;;19.60;99.90;;;;;;2076037;28;20029;-70
2022/06/25 01:53:14;;;;;;;5.45;1.50;;;19.60;99.90;;;;;;2072768;28;20537;-70
2022/06/25 01:54:15;;;;;;;1.77;1.63;;;19.60;99.90;;;;;;2076241;28;20075;-70
2022/06/25 01:55:17;;;;;;;3.63;1.75;;;19.60;99.90;;;;;;2076018;28;20071;-70
2022/06/25 01:56:17;;;;;;;2.03;1.67;;;19.60;99.90;;;;;;2077774;28;20072;-70
2022/06/25 01:57:18;;;;;;;3.83;1.95;;;19.60;99.90;;;;;;2079034;28;20033;-70
2022/06/25 01:58:19;;;;;;;2.28;1.90;;;19.60;99.90;;;;;;2076814;28;20034;-70
2022/06/25 01:59:20;;;;;;;4.13;2.08;;;19.60;99.90;;;;;;2075443;28;20481;-69
2022/06/25 02:00:23;;;;;;;1.88;1.63;;;19.60;99.90;;;;;;2073888;28;20526;-69
2022/06/25 02:01:24;;;;;;;2.13;1.60;;;19.60;99.90;;;;;;2076093;28;20049;-69
2022/06/25 02:02:25;;;;;;;2.47;1.50;;;19.60;99.90;;;;;;2078521;28;20021;-69
2022/06/25 02:03:26;;;;;;;2.50;1.80;;;19.60;99.90;;;;;;2076404;28;20038;-69
2022/06/25 02:04:27;;;;;;;2.38;1.70;;;19.60;99.90;;;;;;2078184;28;20033;-69
2022/06/25 02:06:48;;;;;;;2.75;1.85;;;19.60;99.90;;;;;;2078872;28;20030;-69
2022/06/25 02:07:48;;;;;;;3.17;2.20;;;19.50;99.90;;;;;;2078020;28;20037;-69
2022/06/25 02:08:49;;;;;;;6.85;2.22;;;19.60;99.90;;;;;;2074794;28;20103;-69
2022/06/25 02:09:49;;;;;;;5.32;1.85;;;19.60;99.90;;;;;;2075446;28;20022;-69
2022/06/25 02:10:50;;;;;;;4.80;2.30;;;19.60;99.90;;;;;;2078950;28;20612;-69
2022/06/25 02:11:51;;;;;;;3.53;1.80;;;19.60;99.90;;;;;;2075180;28;20029;-69
2022/06/25 02:12:51;;;;;;;3.20;1.60;;;19.50;99.90;;;;;;2077827;28;20080;-69
2022/06/25 02:13:52;;;;;;;2.33;1.58;;;19.60;99.90;;;;;;2076235;28;20049;-69
2022/06/25 02:14:52;;;;;;;4.05;1.90;;;19.50;99.90;;;;;;2074942;28;20032;-70
2022/06/25 02:15:55;;;;;;;2.35;1.73;;;19.60;99.90;;;;;;2075648;28;20052;-69
2022/06/25 02:16:56;;;;;;;4.90;2.00;;;19.50;99.90;;;;;;2078782;28;20479;-69
2022/06/25 02:17:56;;;;;;;4.15;2.05;;;19.50;99.90;;;;;;2076721;28;20405;-69
2022/06/25 02:18:57;;;;;;;4.05;2.00;;;19.50;99.90;;;;;;2078819;28;20022;-69
2022/06/25 02:19:57;;;;;;;3.70;1.83;;;19.50;99.90;;;;;;2075040;28;20458;-69
2022/06/25 02:20:58;;;;;;;2.75;2.05;;;19.50;99.90;;;;;;2076548;28;20049;-69
2022/06/25 02:21:59;;;;;;;2.25;2.10;;;19.50;99.90;;;;;;2075709;28;20026;-69
2022/06/25 02:23:00;;;;;;;4.72;2.45;;;19.50;99.90;;;;;;2074848;28;20026;-69
2022/06/25 02:24:01;;;;;;;2.25;1.95;;;19.50;99.90;;;;;;2076710;28;20078;-69
2022/06/25 02:25:02;;;;;;;3.78;1.88;;;19.50;99.90;;;;;;2077984;28;20024;-69
2022/06/25 02:26:02;;;;;;;4.60;2.05;;;19.50;99.90;;;;;;2076326;28;20037;-69
2022/06/25 02:27:03;;;;;;;2.58;1.98;;;19.50;99.90;;;;;;2077137;28;20581;-69
2022/06/25 02:28:04;;;;;;;3.10;2.05;;;19.50;99.90;;;;;;2074309;28;20021;-69
2022/06/25 02:29:05;;;;;;;2.30;2.10;;;19.50;99.90;;;;;;2077639;28;20036;-70
2022/06/25 02:30:06;;;;;;;3.53;2.08;;;19.50;99.90;;;;;;2078287;28;20096;-69
2022/06/25 02:31:06;;;;;;;6.70;2.30;;;19.50;99.90;;;;;;2077022;28;20030;-69
2022/06/25 02:32:07;;;;;;;4.50;1.70;;;19.50;99.90;;;;;;2075450;28;20418;-69
2022/06/25 02:33:11;;;;;;;3.95;1.95;;;19.50;99.90;;;;;;2075908;28;20033;-69
2022/06/25 02:34:11;;;;;;;4.05;2.03;;;19.50;99.90;;;;;;2076607;28;20022;-69
2022/06/25 02:35:12;;;;;;;2.13;1.80;;;19.50;99.90;;;;;;2076476;28;20025;-69
2022/06/25 02:36:13;;;;;;;4.47;1.95;;;19.50;99.90;;;;;;2077074;28;20080;-69
2022/06/25 02:37:13;;;;;;;5.70;2.15;;;19.50;99.90;;;;;;2077383;28;20037;-69
2022/06/25 02:38:14;;;;;;;4.30;2.15;;;19.40;99.90;;;;;;2073979;28;20033;-69
2022/06/25 02:39:15;;;;;;;3.83;2.28;;;19.40;99.90;;;;;;2075527;28;20037;-69
2022/06/25 02:40:15;;;;;;;4.47;1.77;;;19.40;99.90;;;;;;2074732;28;20044;-69
2022/06/25 02:41:16;;;;;;;3.78;2.42;;;19.40;99.90;;;;;;2077755;28;20033;-69
2022/06/25 02:42:17;;;;;;;2.70;2.22;;;19.40;99.90;;;;;;2077327;28;20528;-69
2022/06/25 02:43:17;;;;;;;6.30;2.45;;;19.40;99.90;;;;;;2078109;28;20440;-69
2022/06/25 02:44:18;;;;;;;4.00;2.10;;;19.40;99.90;;;;;;2078112;28;20030;-69
2022/06/25 02:45:18;;;;;;;4.13;2.20;;;19.40;99.90;;;;;;2076057;28;20393;-69
2022/06/25 02:46:19;;;;;;;3.45;2.30;;;19.40;99.90;;;;;;2077604;28;20611;-69
2022/06/25 02:47:20;;;;;;;3.03;1.85;;;19.40;99.90;;;;;;2074648;28;20033;-69
2022/06/25 02:48:20;;;;;;;6.78;2.10;;;19.40;99.90;;;;;;2077242;28;20396;-69
2022/06/25 02:49:21;;;;;;;3.92;2.25;;;19.40;99.90;;;;;;2079277;28;20370;-69
2022/06/25 02:50:22;;;;;;;4.70;1.67;;;19.40;99.90;;;;;;2078064;28;20029;-69
2022/06/25 02:51:22;;;;;;;2.75;2.15;;;19.40;99.90;;;;;;2070036;28;20022;-69
2022/06/25 02:52:23;;;;;;;3.35;2.20;;;19.40;99.90;;;;;;2070105;28;20022;-69
2022/06/25 02:53:23;;;;;;;5.28;2.22;;;19.40;99.90;;;;;;2075499;28;20537;-69
2022/06/25 02:54:24;;;;;;;3.03;2.15;;;19.40;99.90;;;;;;2077845;28;20087;-69
2022/06/25 02:59:22;;;;;;;4.50;2.00;;;19.30;99.90;;;;;;2076739;28;20025;-70
2022/06/25 03:00:23;;;;;;;4.28;2.10;;;19.30;99.90;;;;;;2076424;28;20528;-69
2022/06/25 03:01:25;;;;;;;2.92;2.13;;;19.30;99.90;;;;;;2075759;28;20080;-69
2022/06/25 03:02:25;;;;;;;4.07;2.10;;;19.30;99.90;;;;;;2076234;28;20203;-69
2022/06/25 03:03:26;;;;;;;4.72;2.40;;;19.30;99.90;;;;;;2076757;28;20026;-69
2022/06/25 03:04:26;;;;;;;2.88;2.10;;;19.30;99.90;;;;;;2077341;28;20485;-69
2022/06/25 03:05:27;;;;;;;5.25;2.50;;;19.30;99.90;;;;;;2074652;28;20954;-69
2022/06/25 03:06:28;;;;;;;1.92;1.80;;;19.30;99.90;;;;;;2076836;28;20026;-69
2022/06/25 03:07:28;;;;;;;2.78;1.95;;;19.30;99.90;;;;;;2077392;28;20021;-69
2022/06/25 03:08:29;;;;;;;6.00;2.05;;;19.30;99.90;;;;;;2076637;28;20088;-69
2022/06/25 03:09:30;;;;;;;2.25;1.83;;;19.30;99.90;;;;;;2077944;28;20014;-69
2022/06/25 03:10:31;;;;;;;3.03;2.22;;;19.30;99.90;;;;;;2078933;28;20025;-69
2022/06/25 03:11:31;;;;;;;3.95;2.42;;;19.30;99.90;;;;;;2075064;28;20037;-69
2022/06/25 03:12:32;;;;;;;3.33;2.20;;;19.30;99.90;;;;;;2075441;28;20026;-69
2022/06/25 03:13:34;;;;;;;2.65;2.00;;;19.30;99.90;;;;;;2078825;28;20389;-69
2022/06/25 03:14:34;;;;;;;4.78;1.92;;;19.30;99.90;;;;;;2079461;28;20171;-69
2022/06/25 03:15:35;;;;;;;4.40;2.03;;;19.30;99.90;;;;;;2075716;28;20053;-69
2022/06/25 03:16:35;;;;;;;3.80;2.40;;;19.30;99.90;;;;;;2075423;28;20375;-69
2022/06/25 03:17:36;;;;;;;3.78;1.80;;;19.30;99.90;;;;;;2078422;28;20097;-69
2022/06/25 03:18:38;;;;;;;3.63;2.22;;;19.30;99.90;;;;;;2075600;28;20123;-69
2022/06/25 03:19:38;;;;;;;4.55;2.33;;;19.30;99.90;;;;;;2074057;28;20064;-68
2022/06/25 03:20:39;;;;;;;2.55;2.03;;;19.30;99.90;;;;;;2077840;28;20025;-68
2022/06/25 03:21:39;;;;;;;4.63;2.40;;;19.30;99.90;;;;;;2078529;28;20025;-68
2022/06/25 03:22:40;;;;;;;2.60;2.10;;;19.30;99.90;;;;;;2076202;28;20030;-68
2022/06/25 03:23:40;;;;;;;4.05;2.20;;;19.30;99.90;;;;;;2074080;28;20045;-68
2022/06/25 03:24:41;;;;;;;3.53;2.63;;;19.20;99.90;;;;;;2075588;28;20038;-68
2022/06/25 03:25:42;;;;;;;2.53;2.22;;;19.20;99.90;;;;;;2075531;28;20499;-68
2022/06/25 03:26:43;;;;;;;3.70;2.45;;;19.20;99.90;;;;;;2075153;28;20045;-69
2022/06/25 03:27:43;;;;;;;3.60;2.40;;;19.20;99.90;;;;;;2072993;28;20076;-68
2022/06/25 03:28:44;;;;;;;4.97;2.15;;;19.20;99.90;;;;;;2077890;28;20029;-68
2022/06/25 03:29:44;;;;;;;5.13;2.80;;;19.20;99.90;;;;;;2078937;28;20032;-68
2022/06/25 03:30:45;;;;;;;8.27;2.47;;;19.20;99.90;;;;;;2075383;28;20561;-68
2022/06/25 03:31:46;;;;;;;2.95;2.28;;;19.20;99.90;;;;;;2077606;28;20018;-68
2022/06/25 03:32:46;;;;;;;4.15;2.33;;;19.20;99.90;;;;;;2075589;28;20079;-68
2022/06/25 03:33:48;;;;;;;2.20;2.00;;;19.20;99.90;;;;;;2075136;28;20029;-68
2022/06/25 03:34:48;;;;;;;2.97;2.20;;;19.20;99.90;;;;;;2075588;28;20052;-68
2022/06/25 03:35:49;;;;;;;4.00;2.17;;;19.20;99.90;;;;;;2074790;28;20029;-68
2022/06/25 03:36:51;;;;;;;2.47;2.28;;;19.20;99.90;;;;;;2075638;28;20075;-68
2022/06/25 03:37:51;;;;;;;4.20;2.13;;;19.20;99.90;;;;;;2076068;28;20048;-68
2022/06/25 03:38:52;;;;;;;3.03;2.13;;;19.20;99.90;;;;;;2074895;28;20029;-68
2022/06/25 03:39:53;;;;;;;2.17;1.88;;;19.20;99.90;;;;;;2076352;28;20100;-68
2022/06/25 03:41:32;;;;;;;6.70;2.40;;;19.20;99.90;;;;;;2073810;28;20025;-68
2022/06/25 03:42:14;;;;;;;3.78;2.20;;;19.20;99.90;;;;;;2072836;28;20037;-68
2022/06/25 03:43:14;;;;;;;3.90;2.20;;;19.20;99.90;;;;;;2075258;28;20116;-68
2022/06/25 03:44:15;;;;;;;2.40;2.20;;;19.20;99.90;;;;;;2076545;28;20050;-68
2022/06/25 03:45:16;;;;;;;5.40;2.22;;;19.20;99.90;;;;;;2074383;28;20025;-68
2022/06/25 03:46:16;;;;;;;3.95;2.10;;;19.20;99.90;;;;;;2075120;28;20033;-68
2022/06/25 03:47:17;;;;;;;3.75;2.05;;;19.10;99.90;;;;;;2075617;28;20029;-68
2022/06/25 03:48:17;;;;;;;4.88;2.28;;;19.10;99.90;;;;;;2075527;28;20730;-68
2022/06/25 03:49:18;;;;;;;4.18;2.15;;;19.10;99.90;;;;;;2075448;28;20419;-68
2022/06/25 03:50:20;;;;;;;2.90;2.10;;;19.10;99.90;;;;;;2072912;28;20034;-68
2022/06/25 03:51:21;;;;;;;3.55;2.22;;;19.10;99.90;;;;;;2073103;28;20509;-68
2022/06/25 03:52:21;;;;;;;3.45;1.85;;;19.10;99.90;;;;;;2076023;28;20400;-68
2022/06/25 03:53:22;;;;;;;5.53;2.03;;;19.10;99.90;;;;;;2078897;28;20029;-68
2022/06/25 03:54:22;;;;;;;3.78;2.40;;;19.10;99.90;;;;;;2075820;28;20021;-68
2022/06/25 03:55:23;;;;;;;4.82;2.20;;;19.10;99.90;;;;;;2076091;28;20022;-68
2022/06/25 03:56:24;;;;;;;7.40;2.20;;;19.10;99.90;;;;;;2074392;28;20497;-68
2022/06/25 03:57:25;;;;;;;3.45;1.92;;;19.20;99.90;;;;;;2078011;28;20043;-68
2022/06/25 03:58:25;;;;;;;2.33;1.90;;;19.20;99.90;;;;;;2068898;28;20480;-68
2022/06/25 03:59:26;;;;;;;5.28;2.20;;;19.20;99.90;;;;;;2070122;28;20037;-68
2022/06/25 04:00:27;;;;;;;5.32;2.00;;;19.30;99.90;;;;;;2080005;28;20389;-68
2022/06/25 04:01:28;;;;;;;2.72;1.70;;;19.40;99.90;;;;;;2077835;28;20030;-68
2022/06/25 04:02:28;;;;;;;3.47;1.55;;;19.50;99.90;;;;;;2075976;28;20032;-68
2022/06/25 04:03:29;;;;;;;2.35;1.90;;;19.60;99.90;;;;;;2075966;28;20033;-68
2022/06/25 04:04:30;;;;;;;1.92;1.70;;;19.70;99.90;;;;;;2076744;28;20029;-68
2022/06/25 04:05:31;;;;;;;2.13;1.90;;;19.80;99.90;;;;;;2077392;28;20029;-68
2022/06/25 04:06:32;;;;;;;2.50;1.50;;;20.00;99.90;;;;;;2074313;28;20030;-68
2022/06/25 04:07:32;;;;;;;2.58;1.90;;;20.10;99.90;;;;;;2078448;28;20038;-68
2022/06/25 04:08:33;;;;;;;2.28;1.50;;;20.30;99.90;;;;;;2079136;28;20034;-68
2022/06/25 04:09:34;;;;;;;4.22;1.88;;;20.40;99.90;;;;;;2077397;28;20075;-68
2022/06/25 04:10:35;;;;;;;2.88;2.05;;;20.60;99.90;;;;;;2079275;28;20029;-68
2022/06/25 04:11:35;;;;;;;4.00;1.95;;;20.80;99.90;;;;;;2077537;28;20092;-68
2022/06/25 04:12:36;;;;;;;1.92;1.60;;;21.00;99.90;;;;;;2076657;28;20029;-68
2022/06/25 04:13:37;;;;;;;2.55;1.73;;;21.30;99.90;;;;;;2077393;28;20017;-68
2022/06/25 04:14:38;;;;;;;1.77;1.63;;;21.60;99.90;;;;;;2079985;28;21032;-68
2022/06/25 04:15:39;;;;;;;2.88;1.63;;;21.80;99.90;;;;;;2076146;28;20527;-68
2022/06/25 04:16:40;;;;;;;3.78;1.50;;;22.10;99.90;;;;;;2077992;28;20022;-68
2022/06/25 04:17:41;;;;;;;2.97;1.50;;;22.50;99.90;;;;;;2078972;28;20141;-68
2022/06/25 04:18:41;;;;;;;1.80;1.52;;;22.70;99.90;;;;;;2078701;28;20038;-68
2022/06/25 04:19:42;;;;;;;4.13;1.70;;;23.00;99.90;;;;;;2075969;28;20374;-68
2022/06/25 04:20:42;;;;;;;3.15;1.92;;;23.20;99.90;;;;;;2075364;28;20388;-68
2022/06/25 04:21:47;;;;;;;2.75;1.40;;;23.50;99.90;;;;;;2078579;28;20037;-68
2022/06/25 04:22:48;;;;;;;3.72;1.50;;;23.60;99.90;;;;;;2078737;28;20017;-68
2022/06/25 04:23:48;;;;;;;2.47;1.63;;;23.80;99.90;;;;;;2076590;28;20025;-69
2022/06/25 04:24:49;;;;;;;3.92;2.00;;;24.10;99.90;;;;;;2077666;28;20030;-68
2022/06/25 04:25:50;;;;;;;4.97;1.70;;;24.20;99.90;;;;;;2076754;28;20021;-68
2022/06/25 04:26:50;;;;;;;3.63;1.58;;;24.40;99.90;;;;;;2079700;28;20168;-68
2022/06/25 04:29:10;;;;;;;3.90;2.00;;;24.50;99.90;;;;;;2078052;28;20029;-68
2022/06/25 04:30:10;;;;;;;1.77;1.33;;;24.50;99.90;;;;;;2078793;28;20025;-68
2022/06/25 04:31:11;;;;;;;2.00;1.30;;;24.40;99.90;;;;;;2077844;28;20021;-68
2022/06/25 04:32:12;;;;;;;3.65;1.67;;;24.30;99.90;;;;;;2079301;28;20416;-68
2022/06/25 04:33:12;;;;;;;6.68;1.55;;;24.30;99.90;;;;;;2078024;28;20094;-68
2022/06/25 04:34:15;;;;;;;2.20;1.25;;;24.20;99.90;;;;;;2077137;28;20477;-68
2022/06/25 04:35:15;;;;;;;4.00;1.65;;;24.10;99.90;;;;;;2076688;28;20029;-68
2022/06/25 04:36:16;;;;;;;2.05;1.20;;;24.10;99.90;;;;;;2078231;28;20144;-68
2022/06/25 04:37:17;;;;;;;3.28;1.55;;;24.10;99.90;;;;;;2077496;28;20026;-69
2022/06/25 04:38:17;;;;;;;1.95;1.17;;;24.00;99.90;;;;;;2068738;28;20025;-68
2022/06/25 04:39:18;;;;;;;1.98;1.20;;;24.00;99.90;;;;;;2069178;28;20036;-68
2022/06/25 04:40:18;;;;;;;5.03;1.48;;;24.00;99.90;;;;;;2077653;28;20044;-68
2022/06/25 04:41:19;;;;;;;2.45;1.40;;;24.00;99.90;;;;;;2077073;28;20044;-68
2022/06/25 04:42:20;;;;;;;4.13;1.60;;;24.00;99.90;;;;;;2077179;28;20496;-68
2022/06/25 04:43:21;;;;;;;1.80;1.27;;;24.10;99.90;;;;;;2078375;28;20034;-68
2022/06/25 04:44:21;;;;;;;2.47;1.20;;;24.00;99.90;;;;;;2077956;28;20045;-69
2022/06/25 04:45:22;;;;;;;2.47;1.30;;;24.10;99.90;;;;;;2076587;28;20036;-69
2022/06/25 04:46:23;;;;;;;4.22;1.60;;;24.10;99.90;;;;;;2078228;28;20030;-68
2022/06/25 04:47:23;;;;;;;1.77;1.58;;;24.10;99.90;;;;;;2080033;28;20032;-69
2022/06/25 04:48:24;;;;;;;4.72;1.35;;;24.10;99.90;;;;;;2079092;28;20473;-69
2022/06/25 04:49:24;;;;;;;1.38;1.23;;;24.10;99.90;;;;;;2077743;28;20105;-68
2022/06/25 04:50:25;;;;;;;1.65;1.35;;;24.20;99.90;;;;;;2077421;28;20058;-69
2022/06/25 04:51:26;;;;;;;1.45;1.15;;;24.20;99.90;;;;;;2077937;28;20022;-69
2022/06/25 04:52:27;;;;;;;3.35;1.13;;;24.20;99.90;;;;;;2077934;28;20041;-69
2022/06/25 04:53:28;;;;;;;1.30;1.20;;;24.20;99.90;;;;;;2076281;28;20026;-69
2022/06/25 04:54:28;;;;;;;3.35;1.20;;;24.30;99.90;;;;;;2075711;28;20022;-69
2022/06/25 04:55:29;;;;;;;3.08;1.48;;;24.30;99.90;;;;;;2075920;28;20064;-69
2022/06/25 04:56:30;;;;;;;2.25;1.35;;;24.40;99.90;;;;;;2077015;28;20560;-69
2022/06/25 04:57:31;;;;;;;3.63;1.20;;;24.40;99.90;;;;;;2077679;28;20013;-68
2022/06/25 04:58:31;;;;;;;2.25;1.55;;;24.40;99.90;;;;;;2079471;28;20528;-69
2022/06/25 04:59:32;;;;;;;5.78;1.58;;;24.50;99.90;;;;;;2078006;28;20030;-69
2022/06/25 05:00:33;;;;;;;2.45;1.40;;;24.50;99.90;;;;;;2075766;28;20084;-69
2022/06/25 05:01:33;;;;;;;3.70;1.40;;;24.60;99.90;;;;;;2077784;28;20112;-69
2022/06/25 05:02:34;;;;;;;2.05;1.45;;;24.60;99.90;;;;;;2077377;28;20056;-69
2022/06/25 05:03:34;;;;;;;2.17;1.27;;;24.60;99.90;;;;;;2077808;28;20034;-69
2022/06/25 05:04:35;;;;;;;4.90;1.35;;;24.60;99.90;;;;;;2079304;28;20040;-69
2022/06/25 05:05:36;;;;;;;2.60;1.50;;;24.70;99.90;;;;;;2078002;28;20024;-69
2022/06/25 05:06:37;;;;;;;2.20;1.30;;;24.70;99.90;;;;;;2076863;28;20025;-69
2022/06/25 05:07:37;;;;;;;4.90;1.75;;;24.80;99.90;;;;;;2077598;28;20029;-69
2022/06/25 05:08:38;;;;;;;3.92;1.10;;;24.80;99.90;;;;;;2078388;28;20617;-69
2022/06/25 05:09:39;;;;;;;1.60;1.40;;;24.80;99.90;;;;;;2075785;28;20026;-69
2022/06/25 05:10:40;;;;;;;2.50;1.45;;;24.80;99.90;;;;;;2076414;28;20026;-69
2022/06/25 05:11:41;;;;;;;2.85;1.85;;;24.90;99.90;;;;;;2077027;28;20096;-69
2022/06/25 05:14:01;;;;;;;3.90;1.10;;;25.00;99.90;;;;;;2079619;28;20026;-68
2022/06/25 05:15:01;;;;;;;4.25;1.67;;;25.00;99.90;;;;;;2074371;28;20116;-69
2022/06/25 05:16:02;;;;;;;3.03;1.67;;;25.00;99.90;;;;;;2076341;28;20532;-68
2022/06/25 05:17:03;;;;;;;1.25;1.10;;;25.00;99.90;;;;;;2074574;28;20021;-68
2022/06/25 05:18:04;;;;;;;2.70;1.40;;;25.10;99.90;;;;;;2074210;28;20025;-68
2022/06/25 05:19:04;;;;;;;3.28;1.50;;;25.10;99.90;;;;;;2078129;28;20042;-68
2022/06/25 05:20:05;;;;;;;1.85;1.00;;;25.20;99.90;;;;;;2079158;28;20032;-69
2022/06/25 05:21:06;;;;;;;2.25;1.20;;;25.20;99.90;;;;;;2076151;28;20013;-69
2022/06/25 05:22:06;;;;;;;3.72;1.75;;;25.20;99.90;;;;;;2076366;28;20013;-69
2022/06/25 05:23:07;;;;;;;2.17;1.08;;;25.20;99.90;;;;;;2075275;28;20072;-68
2022/06/25 05:24:08;;;;;;;2.50;1.30;;;25.20;99.90;;;;;;2076560;28;20022;-68
2022/06/25 05:25:09;;;;;;;2.53;1.17;;;25.30;99.90;;;;;;2073108;28;20017;-68
2022/06/25 05:26:10;;;;;;;4.10;1.42;;;25.40;99.90;;;;;;2075953;28;20029;-69
2022/06/25 05:27:10;;;;;;;4.82;1.52;;;25.40;99.90;;;;;;2078988;28;20020;-70
2022/06/25 05:28:11;;;;;;;7.10;1.50;;;25.50;99.90;;;;;;2078450;28;20910;-68